Gonzales, Louisiana
Current Conditions -  °F | °C
As of 7:55 PM on Friday 31 Oct 2014 (Local Time) from KL38 Reporting Station
Clear Clear  
Wind Chill: 63°   Ceiling: Unl
Heat Index: 63°   Visibility: 10mi
Dew Point: 48°   Wind: 12mph
Humidity: 60%   Direction: 340°NNW
Pressure: 30.15"   Gusts: 18mph
Location:  30.24°N, 90.92°W
Report Text: KL38 010055Z AUTO 34010G16KT 10SM CLR 17/09 A3015 RMK AO2 T01700091
Loading
Personal Weather Stations






























Interactive Weather Map
Tropical Storm Tracking
New forecast layout! Learn more

10-Day Weather Forecast

Advertisements
Track Severe Weather on mobile